Time;durP1;ratioP1;P1;durP2;ratioP2;P2;SDS_P1;SDS_P2;PMS_P1;PMS_P2;Temp;Humidity;BMP_temperature;BMP_pressure;BME280_temperature;BME280_humidity;BME280_pressure;Samples;Min_cycle;Max_cycle;Signal;HPM_P1;HPM_P2
2021/11/17 02:27:16;;;;;;;31.95;16.33;;;7.70;99.50;;;;;;5013534;28;19928;-80
2021/11/17 02:30:01;;;;;;;34.55;17.17;;;7.70;99.60;;;;;;5010862;28;20029;-80
2021/11/17 02:32:52;;;;;;;32.22;16.42;;;7.70;99.60;;;;;;5028762;28;20540;-80
2021/11/17 02:35:37;;;;;;;30.67;15.95;;;7.80;99.40;;;;;;5016801;28;20029;-81
2021/11/17 02:38:31;;;;;;;31.83;16.58;;;7.80;99.30;;;;;;5023057;28;20682;-81
2021/11/17 02:41:05;;;;;;;35.92;15.80;;;7.80;99.30;;;;;;5023974;28;20056;-81
2021/11/17 02:44:03;;;;;;;33.10;15.68;;;7.80;99.30;;;;;;5020987;28;20225;-80
2021/11/17 02:46:46;;;;;;;31.45;17.23;;;7.90;99.20;;;;;;5021232;28;20039;-79
2021/11/17 02:49:31;;;;;;;35.25;16.85;;;7.90;99.10;;;;;;5017230;28;20030;-80
2021/11/17 02:52:36;;;;;;;32.85;16.95;;;7.90;99.10;;;;;;5013620;28;20065;-80
2021/11/17 02:55:27;;;;;;;33.72;17.73;;;7.90;99.10;;;;;;5022823;28;20022;-80
2021/11/17 02:58:12;;;;;;;26.67;15.43;;;7.90;99.10;;;;;;5021204;28;20124;-80
2021/11/17 03:01:00;;;;;;;35.60;17.13;;;7.90;99.00;;;;;;5027197;28;20026;-80
2021/11/17 03:03:44;;;;;;;32.00;16.17;;;7.80;99.00;;;;;;5014458;28;20029;-80
2021/11/17 03:06:31;;;;;;;32.47;16.63;;;7.90;99.00;;;;;;5016396;28;20534;-81
2021/11/17 03:09:09;;;;;;;33.28;16.52;;;7.90;99.00;;;;;;5025253;28;20159;-81
2021/11/17 03:11:48;;;;;;;36.50;15.80;;;7.90;99.00;;;;;;5023824;28;20103;-81
2021/11/17 03:14:39;;;;;;;36.03;15.63;;;7.90;99.10;;;;;;5013233;28;20029;-81
2021/11/17 03:17:20;;;;;;;31.52;14.93;;;7.90;99.00;;;;;;5019315;28;20482;-80
2021/11/17 03:19:58;;;;;;;30.58;15.27;;;7.90;99.00;;;;;;5014199;28;20057;-82
2021/11/17 03:22:52;;;;;;;29.40;14.38;;;7.90;99.00;;;;;;5017103;28;20038;-80
2021/11/17 03:25:36;;;;;;;33.50;14.75;;;8.00;99.00;;;;;;5015535;28;20038;-79
2021/11/17 03:28:17;;;;;;;29.70;15.27;;;8.00;99.00;;;;;;5021309;28;20037;-79
2021/11/17 03:30:55;;;;;;;28.15;13.65;;;8.00;99.10;;;;;;5023269;28;20041;-79
2021/11/17 03:34:21;;;;;;;27.58;13.77;;;7.90;99.00;;;;;;5027551;28;20057;-80
2021/11/17 03:37:29;;;;;;;23.15;13.70;;;8.00;99.00;;;;;;5006718;28;20061;-81
2021/11/17 03:40:25;;;;;;;29.25;14.10;;;8.00;98.80;;;;;;5013176;28;20483;-82
2021/11/17 03:43:15;;;;;;;27.35;11.70;;;7.90;98.70;;;;;;5012061;28;20478;-79
2021/11/17 03:46:09;;;;;;;21.83;11.35;;;7.90;98.70;;;;;;5017852;28;20033;-80
2021/11/17 03:48:40;;;;;;;23.67;12.13;;;7.80;98.60;;;;;;5018549;28;20033;-80
2021/11/17 03:51:27;;;;;;;17.90;10.45;;;7.80;98.40;;;;;;5028278;28;20037;-81
2021/11/17 03:54:07;;;;;;;21.98;11.20;;;7.90;98.60;;;;;;5013291;28;20050;-80
2021/11/17 03:57:03;;;;;;;25.02;11.82;;;7.90;98.50;;;;;;5020351;28;20057;-80
2021/11/17 03:59:47;;;;;;;22.48;11.60;;;7.90;98.40;;;;;;5014636;28;20414;-80
2021/11/17 04:02:37;;;;;;;21.77;11.32;;;7.80;98.40;;;;;;5007707;28;20169;-81
2021/11/17 04:05:15;;;;;;;22.33;11.15;;;7.90;98.40;;;;;;5013507;28;20029;-80
2021/11/17 04:07:59;;;;;;;23.25;11.50;;;7.90;98.50;;;;;;5029617;28;20029;-80
2021/11/17 04:10:35;;;;;;;25.65;10.55;;;7.90;98.50;;;;;;5015972;28;20417;-80
2021/11/17 04:13:09;;;;;;;22.08;11.25;;;7.90;98.50;;;;;;5021887;28;20365;-80
2021/11/17 04:16:11;;;;;;;22.20;11.52;;;7.90;98.70;;;;;;5030912;28;20401;-80
2021/11/17 04:19:08;;;;;;;21.20;11.23;;;7.80;98.70;;;;;;5022308;28;20022;-81
2021/11/17 04:21:42;;;;;;;24.17;11.32;;;7.80;98.70;;;;;;5034145;28;20026;-81
2021/11/17 04:24:20;;;;;;;24.35;11.15;;;7.80;98.80;;;;;;5036376;28;20033;-78
2021/11/17 04:27:27;;;;;;;20.33;10.93;;;7.80;98.80;;;;;;5036157;28;20018;-80
2021/11/17 04:30:28;;;;;;;20.85;10.63;;;7.80;99.00;;;;;;5011918;28;20048;-79
2021/11/17 04:33:28;;;;;;;21.40;11.93;;;7.70;99.00;;;;;;5034073;28;20057;-81
2021/11/17 04:36:16;;;;;;;19.98;10.43;;;7.80;99.00;;;;;;5022077;28;20048;-79
2021/11/17 04:39:11;;;;;;;17.05;9.77;;;7.80;99.00;;;;;;5025221;28;20026;-81
2021/11/17 04:42:01;;;;;;;19.77;10.18;;;7.80;99.00;;;;;;5026367;28;20854;-80
2021/11/17 04:45:02;;;;;;;20.77;10.00;;;7.80;99.10;;;;;;5019545;28;20133;-81
2021/11/17 04:47:40;;;;;;;21.60;11.15;;;7.80;99.10;;;;;;5017690;28;20029;-81
2021/11/17 04:50:36;;;;;;;21.40;10.20;;;7.70;99.40;;;;;;5020624;28;20029;-81
2021/11/17 04:53:20;;;;;;;20.52;10.88;;;7.70;99.40;;;;;;5029643;28;20414;-81
2021/11/17 04:55:57;;;;;;;22.08;10.20;;;7.80;99.50;;;;;;5031899;28;20654;-81
2021/11/17 04:59:07;;;;;;;25.40;11.43;;;7.80;99.50;;;;;;5024265;28;20025;-81
2021/11/17 05:02:01;;;;;;;19.92;10.43;;;7.80;99.40;;;;;;5013853;28;20026;-81
2021/11/17 05:05:08;;;;;;;27.02;12.25;;;7.80;99.70;;;;;;5024179;28;20030;-81
2021/11/17 05:07:52;;;;;;;22.73;11.13;;;7.80;99.90;;;;;;5027868;28;20134;-81
2021/11/17 05:10:21;;;;;;;22.75;11.60;;;7.70;99.90;;;;;;5036494;28;20025;-81
2021/11/17 05:12:55;;;;;;;22.52;10.50;;;7.70;99.90;;;;;;5033257;28;20072;-81
2021/11/17 05:15:49;;;;;;;23.45;10.93;;;7.60;99.90;;;;;;5015124;28;20029;-81
2021/11/17 05:18:23;;;;;;;21.10;11.98;;;7.60;99.90;;;;;;5019861;28;20048;-81
2021/11/17 05:21:20;;;;;;;27.70;11.40;;;7.60;99.90;;;;;;5031279;28;20044;-82
2021/11/17 05:24:12;;;;;;;24.30;11.85;;;7.60;99.90;;;;;;5030780;28;20040;-81
2021/11/17 05:26:45;;;;;;;24.92;11.63;;;7.60;99.90;;;;;;5019240;28;20049;-81
2021/11/17 05:29:10;;;;;;;;;;;7.60;99.90;;;;;;5029635;28;20047;-79
2021/11/17 05:31:45;;;;;;;26.60;11.85;;;7.60;99.90;;;;;;5018188;28;20524;-80
2021/11/17 05:34:26;;;;;;;25.20;12.55;;;7.60;99.90;;;;;;5018716;28;20132;-79
2021/11/17 05:37:00;;;;;;;23.92;11.30;;;7.60;99.90;;;;;;5016411;28;20160;-80
2021/11/17 05:39:43;;;;;;;25.25;12.18;;;7.50;99.90;;;;;;5034913;28;20032;-80
2021/11/17 05:42:33;;;;;;;27.25;12.93;;;7.60;99.90;;;;;;5019587;28;20735;-81
2021/11/17 05:45:01;;;;;;;27.30;11.02;;;7.60;99.90;;;;;;5029342;28;20036;-81
2021/11/17 05:47:49;;;;;;;25.63;12.32;;;7.60;99.90;;;;;;5030554;28;20025;-81
2021/11/17 05:50:24;;;;;;;27.52;12.32;;;7.60;99.90;;;;;;5028795;28;20040;-81
2021/11/17 05:53:02;;;;;;;26.55;13.02;;;7.60;99.90;;;;;;5015822;28;20080;-81
2021/11/17 05:55:48;;;;;;;26.45;11.93;;;7.60;99.90;;;;;;5020236;28;20030;-80
2021/11/17 05:58:58;;;;;;;30.17;13.45;;;7.60;99.90;;;;;;5025752;28;20041;-81
2021/11/17 06:01:36;;;;;;;27.00;12.80;;;7.60;99.90;;;;;;5013075;28;20053;-81
2021/11/17 06:04:03;;;;;;;27.00;12.30;;;7.60;99.90;;;;;;5014960;28;21468;-81
2021/11/17 06:06:35;;;;;;;26.02;11.98;;;7.50;99.90;;;;;;5020779;28;20706;-80
2021/11/17 06:09:01;;;;;;;19.70;9.15;;;7.50;99.90;;;;;;5019858;28;20033;-82
2021/11/17 06:11:38;;;;;;;24.30;12.88;;;7.50;99.90;;;;;;5025272;28;20048;-82
2021/11/17 06:14:06;;;;;;;22.45;12.73;;;7.40;99.90;;;;;;5025210;28;20034;-81
2021/11/17 06:16:39;;;;;;;25.23;12.35;;;7.40;99.90;;;;;;5024297;28;20025;-82
2021/11/17 06:19:05;;;;;;;23.02;12.35;;;7.40;99.90;;;;;;5025714;28;20033;-81
2021/11/17 06:21:33;;;;;;;26.65;11.55;;;7.40;99.90;;;;;;5023613;28;20065;-82
2021/11/17 06:24:01;;;;;;;23.40;11.65;;;7.40;99.90;;;;;;5027318;28;20040;-81
2021/11/17 06:26:34;;;;;;;22.20;11.15;;;7.40;99.90;;;;;;5023205;28;20398;-80
2021/11/17 06:29:14;;;;;;;22.63;11.05;;;7.40;99.90;;;;;;5017663;28;20611;-82
2021/11/17 06:31:40;;;;;;;19.60;9.65;;;7.40;99.90;;;;;;5016049;28;20033;-82
2021/11/17 06:34:46;;;;;;;19.00;9.73;;;7.30;99.90;;;;;;5016376;28;20537;-80
2021/11/17 06:37:14;;;;;;;15.73;8.40;;;7.30;99.90;;;;;;5018043;28;20075;-80
2021/11/17 06:39:42;;;;;;;17.10;8.82;;;7.30;99.90;;;;;;5023994;28;20046;-80
2021/11/17 06:42:11;;;;;;;16.40;9.05;;;7.30;99.90;;;;;;5015528;28;20486;-81
2021/11/17 06:44:38;;;;;;;17.13;8.88;;;7.20;99.90;;;;;;5020159;28;20025;-81
2021/11/17 06:47:04;;;;;;;15.43;8.85;;;7.20;99.90;;;;;;5023363;28;20044;-81
2021/11/17 06:49:29;;;;;;;15.38;8.13;;;7.20;99.90;;;;;;5023576;28;20030;-79
2021/11/17 06:51:55;;;;;;;15.13;8.43;;;7.10;99.90;;;;;;5016165;28;20052;-80
2021/11/17 06:54:21;;;;;;;17.15;8.68;;;7.20;99.90;;;;;;5028268;28;20041;-80
2021/11/17 06:56:46;;;;;;;15.55;8.50;;;7.20;99.90;;;;;;5027208;28;20044;-79
2021/11/17 06:59:12;;;;;;;14.95;7.72;;;7.10;99.90;;;;;;5026359;28;20112;-83
2021/11/17 07:01:37;;;;;;;17.77;8.02;;;7.10;99.90;;;;;;5027131;28;20041;-80
2021/11/17 07:04:03;;;;;;;16.13;8.13;;;7.00;99.90;;;;;;5029327;28;20029;-80
2021/11/17 07:06:29;;;;;;;15.50;8.93;;;7.10;99.90;;;;;;5028123;28;20033;-80
2021/11/17 07:08:55;;;;;;;15.82;9.05;;;7.10;99.90;;;;;;5025608;28;20382;-79
2021/11/17 07:11:21;;;;;;;13.27;7.88;;;7.00;99.90;;;;;;5023351;28;20040;-82
2021/11/17 07:13:46;;;;;;;15.07;8.60;;;7.10;99.90;;;;;;5030667;28;20048;-79
2021/11/17 07:16:13;;;;;;;16.27;7.93;;;7.10;99.90;;;;;;5028674;28;20064;-80
2021/11/17 07:18:38;;;;;;;13.55;7.32;;;7.10;99.90;;;;;;5026376;28;20017;-80
2021/11/17 07:21:06;;;;;;;14.75;7.80;;;7.10;99.90;;;;;;5027603;28;20496;-79
2021/11/17 07:23:33;;;;;;;15.43;7.97;;;7.10;99.90;;;;;;5008653;28;20034;-78
2021/11/17 07:25:59;;;;;;;15.77;7.80;;;7.10;99.90;;;;;;5013708;28;20029;-78
2021/11/17 07:28:24;;;;;;;15.73;7.55;;;7.10;99.90;;;;;;5026901;28;20485;-80
2021/11/17 07:30:50;;;;;;;14.52;8.48;;;7.10;99.90;;;;;;5028907;28;20034;-80
2021/11/17 07:33:16;;;;;;;14.93;7.15;;;7.10;99.90;;;;;;5046410;28;20413;-80
2021/11/17 07:35:46;;;;;;;11.73;7.47;;;7.20;99.90;;;;;;5034348;28;20073;-79
2021/11/17 07:38:16;;;;;;;11.63;7.43;;;7.20;99.90;;;;;;5018337;28;20032;-79
2021/11/17 07:40:44;;;;;;;16.90;7.80;;;7.30;99.90;;;;;;5027833;28;20073;-80
2021/11/17 07:43:10;;;;;;;10.90;7.03;;;7.30;99.90;;;;;;5028330;28;20536;-80
2021/11/17 07:45:38;;;;;;;11.80;6.47;;;7.40;99.90;;;;;;5028600;28;20033;-80
2021/11/17 07:48:04;;;;;;;17.80;8.50;;;7.40;99.90;;;;;;5028313;28;20021;-79
2021/11/17 07:50:30;;;;;;;13.07;7.80;;;7.40;99.90;;;;;;5028001;28;20056;-80
2021/11/17 07:52:56;;;;;;;14.05;7.15;;;7.40;99.90;;;;;;5030485;28;20623;-81
2021/11/17 07:55:22;;;;;;;16.35;7.68;;;7.40;99.90;;;;;;5027316;28;20040;-80
2021/11/17 07:57:50;;;;;;;13.85;7.68;;;7.40;99.90;;;;;;5028324;28;20041;-81
2021/11/17 08:00:25;;;;;;;14.00;7.45;;;7.50;99.90;;;;;;5028106;28;20129;-81
2021/11/17 08:02:52;;;;;;;14.73;7.82;;;7.50;99.90;;;;;;5027586;28;20072;-81
2021/11/17 08:05:20;;;;;;;10.48;7.15;;;7.40;99.90;;;;;;5028676;28;20398;-81
2021/11/17 08:07:46;;;;;;;11.35;7.22;;;7.40;99.90;;;;;;5027846;28;20029;-81
2021/11/17 08:10:15;;;;;;;12.63;7.82;;;7.40;99.90;;;;;;5027524;28;20041;-81
2021/11/17 08:12:40;;;;;;;13.70;7.68;;;7.40;99.90;;;;;;5028582;28;20052;-81
2021/11/17 08:15:06;;;;;;;14.82;8.25;;;7.40;99.90;;;;;;5028415;28;20029;-80
2021/11/17 08:17:32;;;;;;;13.35;8.05;;;7.40;99.90;;;;;;5028010;28;20033;-81
2021/11/17 08:19:57;;;;;;;11.23;6.95;;;7.40;99.90;;;;;;5025773;28;20053;-81
2021/11/17 08:22:23;;;;;;;14.63;8.10;;;7.40;99.90;;;;;;5028215;28;20029;-81
2021/11/17 08:24:48;;;;;;;14.23;8.35;;;7.50;99.90;;;;;;5027158;28;20048;-81
2021/11/17 08:27:20;;;;;;;12.93;7.50;;;7.50;99.90;;;;;;5029875;28;20076;-79
2021/11/17 08:29:50;;;;;;;12.13;7.18;;;7.50;99.90;;;;;;5036283;28;20025;-82
2021/11/17 08:32:17;;;;;;;9.90;6.35;;;7.50;99.90;;;;;;5022981;28;20029;-80
2021/11/17 08:34:43;;;;;;;11.57;7.57;;;7.50;99.90;;;;;;5008393;28;20030;-81
2021/11/17 08:37:09;;;;;;;12.02;7.00;;;7.50;99.90;;;;;;5010187;28;20037;-80
2021/11/17 08:39:36;;;;;;;12.00;7.53;;;7.40;99.90;;;;;;5027260;28;20028;-80
2021/11/17 08:42:03;;;;;;;10.13;6.40;;;7.40;99.90;;;;;;5017930;28;20040;-79
2021/11/17 08:44:28;;;;;;;11.82;6.68;;;7.40;99.90;;;;;;5022100;28;20497;-80
2021/11/17 08:46:54;;;;;;;11.45;6.32;;;7.40;99.90;;;;;;5024886;28;20037;-80
2021/11/17 08:49:21;;;;;;;10.68;6.28;;;7.40;99.90;;;;;;5023812;28;20033;-81
2021/11/17 08:51:47;;;;;;;10.90;6.18;;;7.40;99.90;;;;;;5032141;28;20073;-80
2021/11/17 08:54:12;;;;;;;7.82;5.38;;;7.40;99.90;;;;;;5031555;28;20030;-80
2021/11/17 08:56:39;;;;;;;11.25;6.10;;;7.40;99.90;;;;;;5030539;28;20044;-80
2021/11/17 08:59:05;;;;;;;11.82;6.72;;;7.30;99.90;;;;;;5028747;28;20449;-80
2021/11/17 09:01:32;;;;;;;10.65;5.88;;;7.40;99.90;;;;;;5029266;28;20471;-79
2021/11/17 09:03:59;;;;;;;9.73;6.82;;;7.30;99.90;;;;;;5030760;28;20033;-80
2021/11/17 09:06:25;;;;;;;6.95;5.10;;;7.40;99.90;;;;;;5030412;28;20136;-80
2021/11/17 09:08:50;;;;;;;7.82;5.13;;;7.40;99.90;;;;;;5021492;28;20121;-81
2021/11/17 09:11:19;;;;;;;11.13;5.65;;;7.30;99.90;;;;;;5023824;28;20602;-81
2021/11/17 09:13:46;;;;;;;8.10;5.32;;;7.30;99.90;;;;;;5030829;28;20398;-80
2021/11/17 09:16:12;;;;;;;6.63;4.97;;;7.20;99.90;;;;;;5031289;28;20087;-81
2021/11/17 09:18:40;;;;;;;7.25;5.00;;;7.30;99.90;;;;;;5014643;28;20607;-81
2021/11/17 09:21:09;;;;;;;7.63;4.22;;;7.30;99.90;;;;;;5026942;28;20030;-80
2021/11/17 09:23:35;;;;;;;4.78;3.65;;;7.30;99.90;;;;;;5030303;28;20418;-81
2021/11/17 09:26:01;;;;;;;4.45;3.40;;;7.40;99.90;;;;;;5030913;28;20033;-81
2021/11/17 09:28:29;;;;;;;8.45;3.65;;;7.40;99.90;;;;;;5028704;28;20489;-81
2021/11/17 09:30:56;;;;;;;5.88;3.50;;;7.40;99.90;;;;;;5029771;28;20037;-80
2021/11/17 09:33:23;;;;;;;4.18;3.42;;;7.40;99.90;;;;;;5029320;28;20079;-82
2021/11/17 09:35:50;;;;;;;4.90;3.45;;;7.40;99.90;;;;;;5029985;28;20040;-81
2021/11/17 09:38:16;;;;;;;5.63;3.70;;;7.50;99.90;;;;;;5017259;28;20033;-80
2021/11/17 09:40:56;;;;;;;4.70;3.42;;;7.60;99.90;;;;;;5036189;28;20122;-80
2021/11/17 09:43:29;;;;;;;4.60;3.22;;;7.60;99.30;;;;;;5027726;28;20039;-81
2021/11/17 09:45:56;;;;;;;5.43;3.30;;;7.50;99.60;;;;;;5026853;28;20032;-80
2021/11/17 09:48:27;;;;;;;5.80;3.13;;;7.50;99.50;;;;;;5021413;28;20026;-81
2021/11/17 09:51:04;;;;;;;5.50;3.83;;;7.60;99.40;;;;;;5022438;28;20482;-80
2021/11/17 09:53:44;;;;;;;3.60;3.20;;;7.60;99.30;;;;;;5012860;28;20112;-81
2021/11/17 09:56:18;;;;;;;4.85;3.70;;;7.60;99.30;;;;;;5018398;28;20041;-82
2021/11/17 09:58:51;;;;;;;5.60;3.30;;;7.50;99.40;;;;;;5012529;28;20124;-81
2021/11/17 10:01:22;;;;;;;5.93;3.83;;;7.50;99.50;;;;;;5024803;28;20037;-79
2021/11/17 10:03:53;;;;;;;5.80;4.25;;;7.60;99.70;;;;;;5029824;28;20040;-80
2021/11/17 10:09:33;;;;;;;5.40;3.70;;;7.60;99.90;;;;;;5029494;28;20083;-81
2021/11/17 10:12:49;;;;;;;4.93;3.45;;;7.60;99.60;;;;;;5009555;28;20046;-80
2021/11/17 10:15:12;;;;;;;3.92;3.17;;;7.60;99.80;;;;;;5028928;28;20037;-80
2021/11/17 10:17:57;;;;;;;4.18;2.97;;;7.60;99.00;;;;;;5028836;28;20029;-80
2021/11/17 10:20:31;;;;;;;4.22;2.80;;;7.60;99.20;;;;;;5029949;28;20489;-80
2021/11/17 10:23:05;;;;;;;3.47;2.72;;;7.60;99.10;;;;;;5018620;28;20057;-81
2021/11/17 10:25:46;;;;;;;3.13;2.47;;;7.50;99.40;;;;;;5015590;28;20073;-80
2021/11/17 10:28:13;;;;;;;3.63;2.78;;;7.50;98.60;;;;;;5028879;28;20083;-80
2021/11/17 10:31:18;;;;;;;3.75;2.60;;;7.40;98.50;;;;;;5022913;28;20025;-80
2021/11/17 10:33:53;;;;;;;3.22;2.08;;;7.40;98.50;;;;;;5007327;28;20754;-80
2021/11/17 10:36:32;;;;;;;3.15;2.65;;;7.30;98.30;;;;;;5023858;28;20492;-81
2021/11/17 10:39:18;;;;;;;3.25;2.35;;;7.30;98.50;;;;;;5050863;28;20691;-81
2021/11/17 10:42:00;;;;;;;3.58;2.60;;;7.30;98.60;;;;;;5029164;28;20079;-81
2021/11/17 10:44:51;;;;;;;3.45;2.42;;;7.20;98.50;;;;;;5033529;28;20107;-80
2021/11/17 10:47:34;;;;;;;3.33;2.55;;;7.10;98.70;;;;;;5023993;28;20064;-80
2021/11/17 10:50:08;;;;;;;;;;;7.10;98.90;;;;;;5027399;28;20029;-80
2021/11/17 10:53:07;;;;;;;3.85;3.00;;;7.00;98.50;;;;;;5029486;28;19916;-80
2021/11/17 10:55:54;;;;;;;3.65;2.88;;;7.00;98.80;;;;;;5029277;28;20045;-80
2021/11/17 10:58:21;;;;;;;3.45;2.70;;;7.00;98.90;;;;;;5013811;28;20037;-81
2021/11/17 11:01:13;;;;;;;4.13;3.30;;;7.10;98.90;;;;;;5030591;28;20522;-80
2021/11/17 11:03:51;;;;;;;4.97;3.20;;;7.10;98.70;;;;;;5028242;28;20025;-81
2021/11/17 11:06:22;;;;;;;3.50;2.85;;;7.20;98.20;;;;;;5027638;28;20745;-80
2021/11/17 11:09:09;;;;;;;4.10;3.25;;;7.20;98.40;;;;;;5028141;28;20378;-81
2021/11/17 11:11:41;;;;;;;5.03;3.17;;;7.30;98.40;;;;;;5028634;28;20037;-80
2021/11/17 11:14:17;;;;;;;4.68;3.63;;;7.40;98.20;;;;;;5028822;28;20048;-81
2021/11/17 11:17:05;;;;;;;4.60;3.28;;;7.40;97.90;;;;;;5042989;28;20029;-80
2021/11/17 11:19:32;;;;;;;5.20;3.95;;;7.40;97.90;;;;;;4999216;28;20045;-80
2021/11/17 11:21:57;;;;;;;3.35;2.83;;;7.50;97.90;;;;;;5027845;28;20065;-80
2021/11/17 11:24:34;;;;;;;4.18;3.47;;;7.50;98.00;;;;;;5031252;28;20466;-81
2021/11/17 11:26:59;;;;;;;6.00;3.55;;;7.50;97.80;;;;;;5012004;28;20033;-80
2021/11/17 11:29:33;;;;;;;6.85;4.03;;;7.50;97.70;;;;;;5022916;28;20029;-80
2021/11/17 11:32:00;;;;;;;4.85;3.63;;;7.50;97.90;;;;;;5009128;28;20041;-79
2021/11/17 11:34:44;;;;;;;5.32;4.18;;;7.50;98.00;;;;;;5025020;28;20033;-79
2021/11/17 11:37:32;;;;;;;6.22;4.00;;;7.50;97.80;;;;;;5014641;28;20380;-80
2021/11/17 11:40:07;;;;;;;5.53;4.25;;;7.60;97.50;;;;;;5020064;28;20057;-79
2021/11/17 11:42:53;;;;;;;4.97;3.90;;;7.60;97.80;;;;;;5012466;28;20029;-79
2021/11/17 11:45:27;;;;;;;5.10;3.92;;;7.70;97.60;;;;;;5028796;28;20060;-80
2021/11/17 11:48:03;;;;;;;4.57;3.58;;;7.70;97.40;;;;;;5027572;28;20466;-80
2021/11/17 11:50:35;;;;;;;6.72;3.78;;;7.80;97.10;;;;;;5027835;28;20052;-79
2021/11/17 11:54:00;;;;;;;7.43;3.72;;;7.80;97.20;;;;;;5025509;28;20506;-80
2021/11/17 11:56:35;;;;;;;4.43;3.08;;;7.80;97.00;;;;;;5024099;28;20041;-79
2021/11/17 11:59:14;;;;;;;7.57;3.13;;;7.70;97.10;;;;;;5027694;28;20032;-80
2021/11/17 12:01:40;;;;;;;4.93;3.55;;;7.80;96.90;;;;;;5027338;28;20587;-81
2021/11/17 12:04:10;;;;;;;4.05;2.97;;;7.80;96.90;;;;;;5026160;28;20030;-80
2021/11/17 12:07:06;;;;;;;4.70;3.60;;;7.80;97.20;;;;;;5028427;28;20022;-80
2021/11/17 12:09:37;;;;;;;5.25;3.33;;;7.70;97.00;;;;;;5030628;28;20033;-79
2021/11/17 12:12:16;;;;;;;4.00;3.15;;;7.70;97.50;;;;;;5035132;28;20048;-79
2021/11/17 12:14:48;;;;;;;5.20;3.00;;;7.70;97.30;;;;;;5013083;28;20072;-80
2021/11/17 12:17:20;;;;;;;5.18;3.60;;;7.70;97.40;;;;;;5040698;28;20132;-80
2021/11/17 12:19:57;;;;;;;4.35;3.80;;;7.70;97.40;;;;;;5016208;28;20188;-80
2021/11/17 12:22:48;;;;;;;5.93;3.90;;;7.70;97.60;;;;;;5010565;28;20030;-80
2021/11/17 12:25:30;;;;;;;4.93;3.67;;;7.80;97.50;;;;;;5019748;28;20079;-80
2021/11/17 12:28:17;;;;;;;3.40;2.70;;;7.80;97.20;;;;;;5029917;28;20030;-80
2021/11/17 12:30:44;;;;;;;4.70;3.60;;;7.80;97.60;;;;;;5017508;28;20044;-80
2021/11/17 12:33:32;;;;;;;5.97;3.80;;;7.80;97.50;;;;;;5024162;28;20057;-80
2021/11/17 12:36:10;;;;;;;4.45;3.35;;;7.90;97.50;;;;;;5033406;28;20124;-80
2021/11/17 12:38:37;;;;;;;5.70;3.97;;;8.00;97.40;;;;;;5012457;28;20022;-80
2021/11/17 12:41:20;;;;;;;5.75;3.92;;;8.10;97.10;;;;;;5027687;28;20435;-80
2021/11/17 12:44:01;;;;;;;5.13;3.85;;;8.10;96.90;;;;;;5011981;28;20501;-81
2021/11/17 12:46:48;;;;;;;5.47;4.15;;;8.20;97.00;;;;;;5028172;28;20021;-81
2021/11/17 12:49:20;;;;;;;6.75;3.85;;;8.10;97.00;;;;;;5029581;28;20040;-81
2021/11/17 12:51:54;;;;;;;4.97;3.88;;;8.20;97.10;;;;;;5030875;28;20471;-80
2021/11/17 12:54:29;;;;;;;4.30;3.50;;;8.30;96.80;;;;;;5031611;28;20109;-80
2021/11/17 12:57:03;;;;;;;6.03;3.50;;;8.20;97.10;;;;;;5031304;28;20029;-81
2021/11/17 12:59:38;;;;;;;5.72;3.78;;;8.10;96.80;;;;;;5028043;28;20026;-83
2021/11/17 13:02:29;;;;;;;5.30;3.38;;;8.10;97.00;;;;;;5022173;28;20037;-81
2021/11/17 13:05:21;;;;;;;5.13;3.45;;;8.20;97.00;;;;;;5012044;28;20034;-81
2021/11/17 13:07:50;;;;;;;6.97;4.30;;;8.20;96.90;;;;;;5011008;28;20104;-81
2021/11/17 13:10:26;;;;;;;6.80;3.78;;;8.30;96.90;;;;;;5011752;28;20084;-80
2021/11/17 13:13:23;;;;;;;4.03;3.40;;;8.30;96.60;;;;;;5012050;28;20046;-80
2021/11/17 13:15:48;;;;;;;5.25;3.50;;;8.40;97.00;;;;;;5019028;28;20125;-79
2021/11/17 13:18:26;;;;;;;4.75;3.30;;;8.30;96.60;;;;;;5028028;28;20120;-80
2021/11/17 13:20:52;;;;;;;5.28;3.08;;;8.30;96.80;;;;;;5026861;28;20581;-80
2021/11/17 13:23:35;;;;;;;4.88;3.47;;;8.30;97.10;;;;;;5023521;28;20026;-80
2021/11/17 13:26:26;;;;;;;5.15;3.42;;;8.40;96.70;;;;;;5022596;28;20034;-80
2021/11/17 13:28:53;;;;;;;4.85;3.30;;;8.40;96.60;;;;;;5017083;28;20069;-81
2021/11/17 13:31:37;;;;;;;5.15;3.53;;;8.50;96.70;;;;;;5025936;28;20042;-81
2021/11/17 13:34:02;;;;;;;3.80;2.63;;;8.60;97.00;;;;;;5016785;28;20088;-81
2021/11/17 13:36:37;;;;;;;5.43;2.75;;;8.60;96.70;;;;;;5028536;28;20033;-79
2021/11/17 13:39:04;;;;;;;4.30;3.00;;;8.60;96.40;;;;;;5029864;28;20033;-85
2021/11/17 13:41:30;;;;;;;4.07;2.90;;;8.60;96.20;;;;;;5030311;28;20021;-83
2021/11/17 13:43:56;;;;;;;4.50;3.10;;;8.60;96.50;;;;;;5030589;28;20393;-80
2021/11/17 13:46:21;;;;;;;4.32;2.70;;;8.60;96.20;;;;;;5031873;28;20034;-82
2021/11/17 13:48:49;;;;;;;4.68;3.20;;;8.60;96.30;;;;;;5028830;28;20474;-81
2021/11/17 13:51:19;;;;;;;4.18;2.88;;;8.60;96.20;;;;;;5028247;28;20123;-79
2021/11/17 13:53:45;;;;;;;3.90;2.72;;;8.60;96.20;;;;;;5018730;28;20068;-80
2021/11/17 13:56:16;;;;;;;3.78;2.78;;;8.60;96.10;;;;;;5036219;28;20460;-81
2021/11/17 13:58:42;;;;;;;3.80;3.22;;;8.50;96.10;;;;;;5030146;28;20780;-81
2021/11/17 14:01:08;;;;;;;4.05;2.97;;;8.50;96.20;;;;;;5028797;28;20041;-80
2021/11/17 14:03:34;;;;;;;4.43;2.55;;;8.40;96.10;;;;;;5023309;28;20026;-81
2021/11/17 14:06:03;;;;;;;3.65;2.75;;;8.40;96.40;;;;;;5029847;28;20026;-81
2021/11/17 14:08:30;;;;;;;6.32;2.42;;;8.40;96.30;;;;;;5038648;28;20801;-81
2021/11/17 14:10:56;;;;;;;4.47;3.13;;;8.40;96.20;;;;;;5041922;28;20077;-81
2021/11/17 14:13:22;;;;;;;3.88;2.95;;;8.40;96.30;;;;;;5034094;28;20073;-81
2021/11/17 14:15:47;;;;;;;3.78;2.78;;;8.30;96.30;;;;;;5023534;28;20026;-81
2021/11/17 14:18:13;;;;;;;4.20;2.35;;;8.30;96.30;;;;;;5048618;28;20060;-81
2021/11/17 14:20:39;;;;;;;3.88;2.53;;;8.30;96.40;;;;;;5034846;28;20064;-81
2021/11/17 14:23:05;;;;;;;2.45;1.92;;;8.20;96.40;;;;;;5028984;28;20467;-82
2021/11/17 14:25:31;;;;;;;4.47;2.33;;;8.20;96.40;;;;;;5027027;28;20056;-81
2021/11/17 14:28:01;;;;;;;4.32;2.35;;;8.20;96.40;;;;;;5029279;28;20047;-82
2021/11/17 14:30:41;;;;;;;3.20;2.45;;;8.20;96.40;;;;;;5027718;28;20075;-82
2021/11/17 14:33:08;;;;;;;3.83;2.50;;;8.20;96.50;;;;;;5028735;28;20398;-82
2021/11/17 14:35:35;;;;;;;4.13;2.80;;;8.20;96.50;;;;;;5024935;28;20036;-81
2021/11/17 14:38:01;;;;;;;4.03;2.80;;;8.20;96.50;;;;;;5024407;28;20043;-83
2021/11/17 14:40:28;;;;;;;3.50;2.40;;;8.20;96.50;;;;;;5016572;28;20029;-81
2021/11/17 14:42:53;;;;;;;4.03;2.25;;;8.20;96.60;;;;;;5009599;28;20088;-82
2021/11/17 14:45:23;;;;;;;3.17;2.53;;;8.10;96.70;;;;;;5028986;28;20052;-81
2021/11/17 14:47:49;;;;;;;4.72;2.95;;;8.20;96.80;;;;;;5031520;28;20033;-81
2021/11/17 14:50:17;;;;;;;3.13;2.22;;;8.20;96.80;;;;;;5037679;28;20033;-82
2021/11/17 14:52:43;;;;;;;3.95;3.05;;;8.20;96.80;;;;;;5036627;28;20136;-81
2021/11/17 14:55:13;;;;;;;3.55;2.63;;;8.10;96.80;;;;;;5048226;28;20025;-81
2021/11/17 14:57:39;;;;;;;2.70;2.08;;;8.10;97.00;;;;;;5028299;28;20382;-82
2021/11/17 15:00:08;;;;;;;4.07;2.40;;;8.10;97.00;;;;;;5011734;28;20037;-81
2021/11/17 15:02:33;;;;;;;3.40;2.30;;;8.00;97.10;;;;;;5024715;28;20038;-81
2021/11/17 15:05:02;;;;;;;9.38;2.50;;;8.10;97.10;;;;;;5030615;28;20033;-82
2021/11/17 15:07:28;;;;;;;3.42;2.50;;;8.00;97.10;;;;;;5014030;28;20443;-81
2021/11/17 15:09:53;;;;;;;3.30;2.30;;;8.10;97.20;;;;;;5019703;28;20057;-81
2021/11/17 15:12:28;;;;;;;4.13;2.97;;;8.00;97.40;;;;;;5025919;28;20406;-81
2021/11/17 15:14:53;;;;;;;3.88;2.50;;;8.10;97.30;;;;;;5020248;28;20037;-82
2021/11/17 15:17:19;;;;;;;3.28;2.67;;;8.10;97.30;;;;;;5016297;28;20029;-82
2021/11/17 15:19:45;;;;;;;6.13;3.17;;;8.10;97.30;;;;;;5022515;28;20461;-81
2021/11/17 15:22:12;;;;;;;5.13;2.80;;;8.10;97.40;;;;;;5028068;28;20053;-81
2021/11/17 15:24:39;;;;;;;7.63;3.00;;;8.10;97.10;;;;;;5027163;28;20109;-81
2021/11/17 15:27:24;;;;;;;5.10;3.38;;;8.20;97.20;;;;;;5024013;28;20029;-80
2021/11/17 15:29:49;;;;;;;4.13;3.00;;;8.20;97.10;;;;;;5018220;28;20106;-81
2021/11/17 15:32:18;;;;;;;4.22;2.67;;;8.20;97.00;;;;;;5024104;28;20121;-81
2021/11/17 15:34:43;;;;;;;4.60;3.00;;;8.20;97.00;;;;;;5014117;28;20049;-81
2021/11/17 15:37:09;;;;;;;4.10;2.67;;;8.20;97.10;;;;;;5012879;28;20058;-81
2021/11/17 15:39:34;;;;;;;4.10;2.65;;;8.20;97.20;;;;;;5028024;28;20025;-81
2021/11/17 15:42:02;;;;;;;4.25;2.60;;;8.20;97.00;;;;;;5028267;28;20153;-82
2021/11/17 15:44:29;;;;;;;3.92;2.80;;;8.30;97.10;;;;;;5029432;28;20033;-81
2021/11/17 15:47:01;;;;;;;2.85;2.40;;;8.30;97.20;;;;;;5029062;28;20470;-81
2021/11/17 15:49:28;;;;;;;4.65;3.20;;;8.30;97.10;;;;;;5024069;28;20096;-81
2021/11/17 15:51:54;;;;;;;4.22;2.40;;;8.30;97.40;;;;;;5014708;28;20056;-80
2021/11/17 15:54:20;;;;;;;3.33;2.70;;;8.30;97.60;;;;;;5027760;28;20048;-80
2021/11/17 15:56:47;;;;;;;4.70;2.70;;;8.30;97.60;;;;;;5019087;28;20057;-85
2021/11/17 15:59:12;;;;;;;4.90;2.97;;;8.20;97.60;;;;;;5023725;28;20025;-81
2021/11/17 16:01:42;;;;;;;3.85;2.83;;;8.30;97.50;;;;;;5018690;28;20032;-81